Lamont, IA (50650)

3:44 PM CDT on May 29, 2015 (GMT -0500)
IADOT | | Change Station
CLOSE
Current Station
Personal Weather Station
Location: Manchester, IA
Elevation: 1013 ft
Nearby Weather Stations

Elev 1013 ft 42.47 °N, 91.45 °W | Updated 23 minutes ago

Mostly Cloudy
Mostly Cloudy
79 °F
Feels Like 80 °F
N
9
Wind Variable Wind from SW
Gusts 16.0 mph

Today
High -- | Low -- °F
--% Chance of Precip.
Yesterday
High -- | Low -- °F
Precip. -- in
5:33 AM 8:35 PM
Waxing Gibbous, 86% visible
Pressure 29.89 in
Visibility 10.0 miles
Clouds Few 3900 ft
Few 5500 ft
Scattered Clouds 7500 ft
Heat Index 80 °F
Dew Point 61 °F
Humidity 54%
Rainfall in
Snow Depth Not available.
UV 7 out of 12
Pollen .80 out of 12
Air Quality Not available.
Flu Activity Sporadic
METAR KOLZ 292035Z AUTO 21015G21KT 10SM FEW039 FEW055 SCT075 27/18 A2989 RMK AO2

More Conditions Fewer Conditions

Pressure 29.89 in
Visibility 10.0 miles
Clouds Few 3900 ft
Few 5500 ft
Scattered Clouds 7500 ft
Heat Index 80 °F
Dew Point 61 °F
Humidity 54%
Rainfall in
Snow Depth Not available.
UV 7 out of 12
Pollen .80 out of 12
Air Quality Not available.
Flu Activity Sporadic
METAR KOLZ 292035Z AUTO 21015G21KT 10SM FEW039 FEW055 SCT075 27/18 A2989 RMK AO2

More Conditions Fewer Conditions

10-Day Weather Forecast

Almanac

Astronomy

May. 29, 2015 Rise Set
Actual Time
Civil Twilight
Nautical Twilight
Astronomical Twilight
Moon
Length of Visible Light
Length of Day
Tomorrow will be .
, % of the Moon is Illuminated

Today's Extremes

State Highs State Lows

Community

WunderPhotos

Upload Photos

1,825,351 photos uploaded!

WunderBlogs® & News

Nearby

Air Quality

  Air Quality AQ Index Pollutant
Not available.

Snow Depth

Station Depth Elevation

Earthquake Activity

City Distance Mag. Time & Date
Minimum magnitude displayed is 2.5.

Coastal Water Temperatures

Place Temperature

Stations

Nearby Weather Stations

Station Location Temp. Windchill Dew Point Humidity Wind Precip. Elev Updated Type